sensor_id;sensor_type;location;lat;lon;timestamp;P1;durP1;ratioP1;P2;durP2;ratioP2
20177;SDS011;10248;51.218;20.866;2022-11-15T00:01:06;3.20;;;3.10;;
20177;SDS011;10248;51.218;20.866;2022-11-15T00:03:34;3.05;;;2.95;;
20177;SDS011;10248;51.218;20.866;2022-11-15T00:06:04;2.95;;;2.85;;
20177;SDS011;10248;51.218;20.866;2022-11-15T00:08:32;3.05;;;2.95;;
20177;SDS011;10248;51.218;20.866;2022-11-15T00:11:00;3.00;;;2.90;;
20177;SDS011;10248;51.218;20.866;2022-11-15T00:13:29;3.15;;;3.05;;
20177;SDS011;10248;51.218;20.866;2022-11-15T00:15:58;3.10;;;3.00;;
20177;SDS011;10248;51.218;20.866;2022-11-15T00:18:26;3.22;;;3.13;;
20177;SDS011;10248;51.218;20.866;2022-11-15T00:20:54;2.88;;;2.78;;
20177;SDS011;10248;51.218;20.866;2022-11-15T00:23:24;3.20;;;3.10;;
20177;SDS011;10248;51.218;20.866;2022-11-15T00:25:55;3.10;;;3.00;;
20177;SDS011;10248;51.218;20.866;2022-11-15T00:28:24;3.20;;;3.10;;
20177;SDS011;10248;51.218;20.866;2022-11-15T00:30:52;3.25;;;3.15;;
20177;SDS011;10248;51.218;20.866;2022-11-15T00:33:19;3.40;;;3.30;;
20177;SDS011;10248;51.218;20.866;2022-11-15T00:35:47;3.20;;;3.10;;
20177;SDS011;10248;51.218;20.866;2022-11-15T00:38:15;3.30;;;3.20;;
20177;SDS011;10248;51.218;20.866;2022-11-15T00:40:44;3.17;;;3.08;;
20177;SDS011;10248;51.218;20.866;2022-11-15T00:43:12;3.00;;;2.90;;
20177;SDS011;10248;51.218;20.866;2022-11-15T00:45:40;3.13;;;3.03;;
20177;SDS011;10248;51.218;20.866;2022-11-15T00:48:08;2.95;;;2.85;;
20177;SDS011;10248;51.218;20.866;2022-11-15T00:50:35;3.20;;;3.10;;
20177;SDS011;10248;51.218;20.866;2022-11-15T00:53:03;3.20;;;3.10;;
20177;SDS011;10248;51.218;20.866;2022-11-15T00:55:31;3.03;;;2.92;;
20177;SDS011;10248;51.218;20.866;2022-11-15T00:58:00;3.30;;;3.20;;
20177;SDS011;10248;51.218;20.866;2022-11-15T01:00:28;3.15;;;3.05;;
20177;SDS011;10248;51.218;20.866;2022-11-15T01:02:56;3.10;;;3.00;;
20177;SDS011;10248;51.218;20.866;2022-11-15T01:05:24;3.10;;;3.00;;
20177;SDS011;10248;51.218;20.866;2022-11-15T01:07:52;3.17;;;3.08;;
20177;SDS011;10248;51.218;20.866;2022-11-15T01:10:21;3.05;;;2.95;;
20177;SDS011;10248;51.218;20.866;2022-11-15T01:12:49;3.10;;;3.00;;
20177;SDS011;10248;51.218;20.866;2022-11-15T01:15:18;3.30;;;3.20;;
20177;SDS011;10248;51.218;20.866;2022-11-15T01:17:46;3.38;;;3.28;;
20177;SDS011;10248;51.218;20.866;2022-11-15T01:20:14;3.20;;;3.10;;
20177;SDS011;10248;51.218;20.866;2022-11-15T01:22:42;3.28;;;3.17;;
20177;SDS011;10248;51.218;20.866;2022-11-15T01:25:09;3.30;;;3.20;;
20177;SDS011;10248;51.218;20.866;2022-11-15T01:27:38;3.05;;;2.95;;
20177;SDS011;10248;51.218;20.866;2022-11-15T01:30:06;3.30;;;3.20;;
20177;SDS011;10248;51.218;20.866;2022-11-15T01:32:36;3.30;;;3.20;;
20177;SDS011;10248;51.218;20.866;2022-11-15T01:35:04;3.15;;;3.05;;
20177;SDS011;10248;51.218;20.866;2022-11-15T01:37:32;3.00;;;2.90;;
20177;SDS011;10248;51.218;20.866;2022-11-15T01:40:01;3.30;;;3.20;;
20177;SDS011;10248;51.218;20.866;2022-11-15T01:42:29;3.00;;;2.90;;
20177;SDS011;10248;51.218;20.866;2022-11-15T01:44:57;3.00;;;2.90;;
20177;SDS011;10248;51.218;20.866;2022-11-15T01:47:25;3.13;;;3.03;;
20177;SDS011;10248;51.218;20.866;2022-11-15T01:49:58;3.00;;;2.90;;
20177;SDS011;10248;51.218;20.866;2022-11-15T01:52:27;3.00;;;2.90;;
20177;SDS011;10248;51.218;20.866;2022-11-15T01:54:58;3.15;;;3.05;;
20177;SDS011;10248;51.218;20.866;2022-11-15T01:57:29;3.10;;;3.00;;
20177;SDS011;10248;51.218;20.866;2022-11-15T01:59:57;3.30;;;3.20;;
20177;SDS011;10248;51.218;20.866;2022-11-15T02:02:25;3.10;;;3.00;;
20177;SDS011;10248;51.218;20.866;2022-11-15T02:04:52;3.20;;;3.10;;
20177;SDS011;10248;51.218;20.866;2022-11-15T02:07:22;3.05;;;2.95;;
20177;SDS011;10248;51.218;20.866;2022-11-15T02:09:50;3.13;;;3.03;;
20177;SDS011;10248;51.218;20.866;2022-11-15T02:12:19;3.17;;;3.08;;
20177;SDS011;10248;51.218;20.866;2022-11-15T02:14:49;3.10;;;3.00;;
20177;SDS011;10248;51.218;20.866;2022-11-15T02:17:25;3.17;;;3.08;;
20177;SDS011;10248;51.218;20.866;2022-11-15T02:20:13;3.20;;;3.10;;
20177;SDS011;10248;51.218;20.866;2022-11-15T02:22:56;3.20;;;3.10;;
20177;SDS011;10248;51.218;20.866;2022-11-15T02:25:37;3.17;;;3.08;;
20177;SDS011;10248;51.218;20.866;2022-11-15T02:30:56;3.30;;;3.20;;
20177;SDS011;10248;51.218;20.866;2022-11-15T02:33:31;3.20;;;3.10;;
20177;SDS011;10248;51.218;20.866;2022-11-15T02:36:05;3.20;;;3.10;;
20177;SDS011;10248;51.218;20.866;2022-11-15T02:38:34;3.30;;;3.20;;
20177;SDS011;10248;51.218;20.866;2022-11-15T02:41:09;2.97;;;2.88;;
20177;SDS011;10248;51.218;20.866;2022-11-15T02:43:40;3.20;;;3.10;;
20177;SDS011;10248;51.218;20.866;2022-11-15T02:46:33;3.10;;;3.00;;
20177;SDS011;10248;51.218;20.866;2022-11-15T02:49:21;3.28;;;3.17;;
20177;SDS011;10248;51.218;20.866;2022-11-15T02:51:49;3.20;;;3.10;;
20177;SDS011;10248;51.218;20.866;2022-11-15T02:54:19;3.13;;;3.03;;
20177;SDS011;10248;51.218;20.866;2022-11-15T02:56:48;3.10;;;3.00;;
20177;SDS011;10248;51.218;20.866;2022-11-15T02:59:23;3.10;;;3.00;;
20177;SDS011;10248;51.218;20.866;2022-11-15T03:02:07;3.30;;;3.20;;
20177;SDS011;10248;51.218;20.866;2022-11-15T03:04:43;3.03;;;2.92;;
20177;SDS011;10248;51.218;20.866;2022-11-15T03:07:14;3.30;;;3.20;;
20177;SDS011;10248;51.218;20.866;2022-11-15T03:09:47;3.30;;;3.20;;
20177;SDS011;10248;51.218;20.866;2022-11-15T03:12:21;3.30;;;3.20;;
20177;SDS011;10248;51.218;20.866;2022-11-15T03:14:54;3.45;;;3.35;;
20177;SDS011;10248;51.218;20.866;2022-11-15T03:17:26;3.53;;;3.42;;
20177;SDS011;10248;51.218;20.866;2022-11-15T03:19:56;4.13;;;3.92;;
20177;SDS011;10248;51.218;20.866;2022-11-15T03:22:25;3.53;;;3.40;;
20177;SDS011;10248;51.218;20.866;2022-11-15T03:24:57;3.42;;;3.33;;
20177;SDS011;10248;51.218;20.866;2022-11-15T03:30:44;3.38;;;3.28;;
20177;SDS011;10248;51.218;20.866;2022-11-15T03:33:14;3.40;;;3.30;;
20177;SDS011;10248;51.218;20.866;2022-11-15T03:35:44;3.40;;;3.30;;
20177;SDS011;10248;51.218;20.866;2022-11-15T03:38:14;2.90;;;2.80;;
20177;SDS011;10248;51.218;20.866;2022-11-15T03:40:45;3.20;;;3.10;;
20177;SDS011;10248;51.218;20.866;2022-11-15T03:43:15;3.13;;;3.03;;
20177;SDS011;10248;51.218;20.866;2022-11-15T03:45:53;3.00;;;2.90;;
20177;SDS011;10248;51.218;20.866;2022-11-15T03:48:25;3.13;;;3.03;;
20177;SDS011;10248;51.218;20.866;2022-11-15T03:50:54;3.05;;;2.95;;
20177;SDS011;10248;51.218;20.866;2022-11-15T03:53:22;3.40;;;3.30;;
20177;SDS011;10248;51.218;20.866;2022-11-15T03:55:50;3.10;;;3.00;;
20177;SDS011;10248;51.218;20.866;2022-11-15T03:58:18;3.20;;;3.10;;
20177;SDS011;10248;51.218;20.866;2022-11-15T04:00:46;3.20;;;3.10;;
20177;SDS011;10248;51.218;20.866;2022-11-15T04:03:14;3.10;;;3.00;;
20177;SDS011;10248;51.218;20.866;2022-11-15T04:11:49;3.00;;;2.90;;
20177;SDS011;10248;51.218;20.866;2022-11-15T04:14:17;3.35;;;3.25;;
20177;SDS011;10248;51.218;20.866;2022-11-15T04:16:45;3.33;;;3.22;;
20177;SDS011;10248;51.218;20.866;2022-11-15T04:22:43;3.42;;;3.33;;
20177;SDS011;10248;51.218;20.866;2022-11-15T04:25:28;3.10;;;3.00;;
20177;SDS011;10248;51.218;20.866;2022-11-15T04:27:57;3.30;;;3.20;;
20177;SDS011;10248;51.218;20.866;2022-11-15T04:30:25;3.40;;;3.30;;
20177;SDS011;10248;51.218;20.866;2022-11-15T04:32:53;3.38;;;3.28;;
20177;SDS011;10248;51.218;20.866;2022-11-15T04:35:21;3.15;;;3.05;;
20177;SDS011;10248;51.218;20.866;2022-11-15T04:37:58;3.30;;;3.20;;
20177;SDS011;10248;51.218;20.866;2022-11-15T04:40:26;3.20;;;3.10;;
20177;SDS011;10248;51.218;20.866;2022-11-15T04:42:53;3.70;;;3.50;;
20177;SDS011;10248;51.218;20.866;2022-11-15T04:45:28;3.35;;;3.25;;
20177;SDS011;10248;51.218;20.866;2022-11-15T04:47:57;3.15;;;3.05;;
20177;SDS011;10248;51.218;20.866;2022-11-15T04:50:24;3.20;;;3.10;;
20177;SDS011;10248;51.218;20.866;2022-11-15T04:52:53;3.38;;;3.28;;
20177;SDS011;10248;51.218;20.866;2022-11-15T04:55:22;3.20;;;3.10;;
20177;SDS011;10248;51.218;20.866;2022-11-15T04:57:57;3.83;;;3.63;;
20177;SDS011;10248;51.218;20.866;2022-11-15T05:00:26;3.30;;;3.20;;
20177;SDS011;10248;51.218;20.866;2022-11-15T05:02:55;3.40;;;3.30;;
20177;SDS011;10248;51.218;20.866;2022-11-15T05:05:40;3.30;;;3.20;;
20177;SDS011;10248;51.218;20.866;2022-11-15T05:08:08;3.30;;;3.20;;
20177;SDS011;10248;51.218;20.866;2022-11-15T05:10:38;3.40;;;3.30;;
20177;SDS011;10248;51.218;20.866;2022-11-15T05:13:06;3.92;;;3.72;;
20177;SDS011;10248;51.218;20.866;2022-11-15T05:15:33;3.40;;;3.30;;
20177;SDS011;10248;51.218;20.866;2022-11-15T05:18:01;3.30;;;3.20;;
20177;SDS011;10248;51.218;20.866;2022-11-15T05:20:29;3.42;;;3.33;;
20177;SDS011;10248;51.218;20.866;2022-11-15T05:22:57;3.40;;;3.30;;
20177;SDS011;10248;51.218;20.866;2022-11-15T05:25:25;3.20;;;3.10;;
20177;SDS011;10248;51.218;20.866;2022-11-15T05:27:54;3.13;;;3.03;;
20177;SDS011;10248;51.218;20.866;2022-11-15T05:30:22;3.20;;;3.10;;
20177;SDS011;10248;51.218;20.866;2022-11-15T05:32:50;3.30;;;3.20;;
20177;SDS011;10248;51.218;20.866;2022-11-15T05:35:18;3.10;;;3.00;;
20177;SDS011;10248;51.218;20.866;2022-11-15T05:37:49;3.03;;;2.92;;
20177;SDS011;10248;51.218;20.866;2022-11-15T05:40:17;3.42;;;3.33;;
20177;SDS011;10248;51.218;20.866;2022-11-15T05:42:44;3.70;;;3.50;;
20177;SDS011;10248;51.218;20.866;2022-11-15T05:45:14;3.60;;;3.40;;
20177;SDS011;10248;51.218;20.866;2022-11-15T05:47:49;3.40;;;3.30;;
20177;SDS011;10248;51.218;20.866;2022-11-15T05:50:17;3.35;;;3.22;;
20177;SDS011;10248;51.218;20.866;2022-11-15T05:52:45;3.58;;;3.40;;
20177;SDS011;10248;51.218;20.866;2022-11-15T05:55:13;3.50;;;3.40;;
20177;SDS011;10248;51.218;20.866;2022-11-15T05:57:41;3.20;;;3.10;;
20177;SDS011;10248;51.218;20.866;2022-11-15T06:00:10;3.70;;;3.50;;
20177;SDS011;10248;51.218;20.866;2022-11-15T06:02:40;3.20;;;3.10;;
20177;SDS011;10248;51.218;20.866;2022-11-15T06:05:08;3.22;;;3.13;;
20177;SDS011;10248;51.218;20.866;2022-11-15T06:07:36;3.80;;;3.60;;
20177;SDS011;10248;51.218;20.866;2022-11-15T06:10:04;3.10;;;3.00;;
20177;SDS011;10248;51.218;20.866;2022-11-15T06:12:35;3.70;;;3.50;;
20177;SDS011;10248;51.218;20.866;2022-11-15T06:15:05;3.80;;;3.60;;
20177;SDS011;10248;51.218;20.866;2022-11-15T06:17:35;3.60;;;3.40;;
20177;SDS011;10248;51.218;20.866;2022-11-15T06:20:04;3.58;;;3.40;;
20177;SDS011;10248;51.218;20.866;2022-11-15T06:22:32;3.40;;;3.30;;
20177;SDS011;10248;51.218;20.866;2022-11-15T06:25:00;3.20;;;3.10;;
20177;SDS011;10248;51.218;20.866;2022-11-15T06:27:31;3.72;;;3.53;;
20177;SDS011;10248;51.218;20.866;2022-11-15T06:29:58;3.60;;;3.40;;
20177;SDS011;10248;51.218;20.866;2022-11-15T06:32:26;3.60;;;3.50;;
20177;SDS011;10248;51.218;20.866;2022-11-15T06:34:55;3.90;;;3.70;;
20177;SDS011;10248;51.218;20.866;2022-11-15T06:37:25;3.80;;;3.60;;
20177;SDS011;10248;51.218;20.866;2022-11-15T06:39:52;3.50;;;3.40;;
20177;SDS011;10248;51.218;20.866;2022-11-15T06:42:20;3.63;;;3.50;;
20177;SDS011;10248;51.218;20.866;2022-11-15T06:44:48;3.30;;;3.20;;
20177;SDS011;10248;51.218;20.866;2022-11-15T06:47:16;3.53;;;3.42;;
20177;SDS011;10248;51.218;20.866;2022-11-15T06:49:44;3.45;;;3.35;;
20177;SDS011;10248;51.218;20.866;2022-11-15T06:52:12;3.30;;;3.20;;
20177;SDS011;10248;51.218;20.866;2022-11-15T06:54:41;3.35;;;3.25;;
20177;SDS011;10248;51.218;20.866;2022-11-15T06:57:09;3.75;;;3.55;;
20177;SDS011;10248;51.218;20.866;2022-11-15T06:59:37;3.28;;;3.17;;
20177;SDS011;10248;51.218;20.866;2022-11-15T07:02:06;3.22;;;3.13;;
20177;SDS011;10248;51.218;20.866;2022-11-15T07:04:37;3.30;;;3.20;;
20177;SDS011;10248;51.218;20.866;2022-11-15T07:07:05;3.50;;;3.40;;
20177;SDS011;10248;51.218;20.866;2022-11-15T07:09:33;3.10;;;3.00;;
20177;SDS011;10248;51.218;20.866;2022-11-15T07:12:02;3.30;;;3.20;;
20177;SDS011;10248;51.218;20.866;2022-11-15T07:14:33;3.30;;;3.20;;
20177;SDS011;10248;51.218;20.866;2022-11-15T07:17:02;3.40;;;3.30;;
20177;SDS011;10248;51.218;20.866;2022-11-15T07:19:31;3.40;;;3.30;;
20177;SDS011;10248;51.218;20.866;2022-11-15T07:21:58;3.50;;;3.40;;
20177;SDS011;10248;51.218;20.866;2022-11-15T07:24:26;3.20;;;3.10;;
20177;SDS011;10248;51.218;20.866;2022-11-15T07:26:54;3.30;;;3.20;;
20177;SDS011;10248;51.218;20.866;2022-11-15T07:29:23;3.53;;;3.42;;
20177;SDS011;10248;51.218;20.866;2022-11-15T07:31:51;3.50;;;3.40;;
20177;SDS011;10248;51.218;20.866;2022-11-15T07:34:19;3.40;;;3.30;;
20177;SDS011;10248;51.218;20.866;2022-11-15T07:36:47;3.78;;;3.67;;
20177;SDS011;10248;51.218;20.866;2022-11-15T07:39:14;3.58;;;3.47;;
20177;SDS011;10248;51.218;20.866;2022-11-15T07:41:42;3.55;;;3.45;;
20177;SDS011;10248;51.218;20.866;2022-11-15T07:44:10;3.63;;;3.53;;
20177;SDS011;10248;51.218;20.866;2022-11-15T07:46:40;3.58;;;3.47;;
20177;SDS011;10248;51.218;20.866;2022-11-15T07:49:08;3.28;;;3.17;;
20177;SDS011;10248;51.218;20.866;2022-11-15T07:51:36;3.00;;;2.90;;
20177;SDS011;10248;51.218;20.866;2022-11-15T07:54:04;3.40;;;3.30;;
20177;SDS011;10248;51.218;20.866;2022-11-15T07:56:32;3.60;;;3.50;;
20177;SDS011;10248;51.218;20.866;2022-11-15T07:59:00;3.58;;;3.47;;
20177;SDS011;10248;51.218;20.866;2022-11-15T08:01:28;3.80;;;3.70;;
20177;SDS011;10248;51.218;20.866;2022-11-15T08:03:57;4.15;;;4.05;;
20177;SDS011;10248;51.218;20.866;2022-11-15T08:06:25;3.70;;;3.60;;
20177;SDS011;10248;51.218;20.866;2022-11-15T08:08:53;3.60;;;3.50;;
20177;SDS011;10248;51.218;20.866;2022-11-15T08:11:21;3.70;;;3.60;;
20177;SDS011;10248;51.218;20.866;2022-11-15T08:13:48;3.15;;;3.05;;
20177;SDS011;10248;51.218;20.866;2022-11-15T08:16:16;3.60;;;3.50;;
20177;SDS011;10248;51.218;20.866;2022-11-15T08:18:44;3.83;;;3.72;;
20177;SDS011;10248;51.218;20.866;2022-11-15T08:21:14;3.40;;;3.30;;
20177;SDS011;10248;51.218;20.866;2022-11-15T08:23:46;3.50;;;3.40;;
20177;SDS011;10248;51.218;20.866;2022-11-15T08:26:14;3.50;;;3.40;;
20177;SDS011;10248;51.218;20.866;2022-11-15T08:28:43;4.00;;;3.90;;
20177;SDS011;10248;51.218;20.866;2022-11-15T08:31:13;4.00;;;3.90;;
20177;SDS011;10248;51.218;20.866;2022-11-15T08:33:43;3.60;;;3.50;;
20177;SDS011;10248;51.218;20.866;2022-11-15T08:36:14;4.20;;;4.10;;
20177;SDS011;10248;51.218;20.866;2022-11-15T08:38:44;4.40;;;4.20;;
20177;SDS011;10248;51.218;20.866;2022-11-15T08:41:24;4.15;;;4.05;;
20177;SDS011;10248;51.218;20.866;2022-11-15T08:43:53;4.40;;;4.20;;
20177;SDS011;10248;51.218;20.866;2022-11-15T08:46:21;4.20;;;4.10;;
20177;SDS011;10248;51.218;20.866;2022-11-15T08:48:48;4.40;;;4.20;;
20177;SDS011;10248;51.218;20.866;2022-11-15T08:51:18;4.20;;;4.10;;
20177;SDS011;10248;51.218;20.866;2022-11-15T08:53:46;4.60;;;4.40;;
20177;SDS011;10248;51.218;20.866;2022-11-15T08:56:14;4.43;;;4.22;;
20177;SDS011;10248;51.218;20.866;2022-11-15T08:58:42;4.50;;;4.30;;
20177;SDS011;10248;51.218;20.866;2022-11-15T09:01:14;4.07;;;3.97;;
20177;SDS011;10248;51.218;20.866;2022-11-15T09:03:44;4.10;;;4.00;;
20177;SDS011;10248;51.218;20.866;2022-11-15T09:06:12;4.38;;;4.18;;
20177;SDS011;10248;51.218;20.866;2022-11-15T09:08:41;4.45;;;4.25;;
20177;SDS011;10248;51.218;20.866;2022-11-15T09:11:13;4.47;;;4.28;;
20177;SDS011;10248;51.218;20.866;2022-11-15T09:13:42;4.40;;;4.20;;
20177;SDS011;10248;51.218;20.866;2022-11-15T09:16:11;4.10;;;4.00;;
20177;SDS011;10248;51.218;20.866;2022-11-15T09:18:39;4.10;;;4.00;;
20177;SDS011;10248;51.218;20.866;2022-11-15T09:21:07;4.00;;;3.90;;
20177;SDS011;10248;51.218;20.866;2022-11-15T09:23:35;4.05;;;3.95;;
20177;SDS011;10248;51.218;20.866;2022-11-15T09:26:05;4.05;;;3.95;;
20177;SDS011;10248;51.218;20.866;2022-11-15T09:28:33;3.80;;;3.70;;
20177;SDS011;10248;51.218;20.866;2022-11-15T09:31:02;4.00;;;3.90;;
20177;SDS011;10248;51.218;20.866;2022-11-15T09:33:31;3.78;;;3.67;;
20177;SDS011;10248;51.218;20.866;2022-11-15T09:36:00;3.90;;;3.80;;
20177;SDS011;10248;51.218;20.866;2022-11-15T09:38:34;3.78;;;3.67;;
20177;SDS011;10248;51.218;20.866;2022-11-15T09:44:12;3.80;;;3.70;;
20177;SDS011;10248;51.218;20.866;2022-11-15T09:46:53;3.97;;;3.88;;
20177;SDS011;10248;51.218;20.866;2022-11-15T09:49:24;4.10;;;4.00;;
20177;SDS011;10248;51.218;20.866;2022-11-15T09:51:53;4.40;;;4.20;;
20177;SDS011;10248;51.218;20.866;2022-11-15T09:54:24;3.85;;;3.75;;
20177;SDS011;10248;51.218;20.866;2022-11-15T09:57:17;4.00;;;3.90;;
20177;SDS011;10248;51.218;20.866;2022-11-15T09:59:52;4.03;;;3.92;;
20177;SDS011;10248;51.218;20.866;2022-11-15T10:03:08;4.53;;;4.32;;
20177;SDS011;10248;51.218;20.866;2022-11-15T10:05:38;4.00;;;3.90;;
20177;SDS011;10248;51.218;20.866;2022-11-15T10:08:12;3.60;;;3.50;;
20177;SDS011;10248;51.218;20.866;2022-11-15T10:10:55;3.40;;;3.30;;
20177;SDS011;10248;51.218;20.866;2022-11-15T10:13:46;4.43;;;4.22;;
20177;SDS011;10248;51.218;20.866;2022-11-15T10:16:26;4.60;;;4.40;;
20177;SDS011;10248;51.218;20.866;2022-11-15T10:19:19;4.57;;;4.38;;
20177;SDS011;10248;51.218;20.866;2022-11-15T10:21:58;4.60;;;4.40;;
20177;SDS011;10248;51.218;20.866;2022-11-15T10:24:43;4.38;;;4.20;;
20177;SDS011;10248;51.218;20.866;2022-11-15T10:27:13;4.80;;;4.60;;
20177;SDS011;10248;51.218;20.866;2022-11-15T10:29:50;4.20;;;4.10;;
20177;SDS011;10248;51.218;20.866;2022-11-15T10:32:18;4.60;;;4.40;;
20177;SDS011;10248;51.218;20.866;2022-11-15T10:34:47;4.80;;;4.60;;
20177;SDS011;10248;51.218;20.866;2022-11-15T10:37:20;4.80;;;4.60;;
20177;SDS011;10248;51.218;20.866;2022-11-15T10:40:06;4.60;;;4.40;;
20177;SDS011;10248;51.218;20.866;2022-11-15T10:42:43;4.15;;;4.05;;
20177;SDS011;10248;51.218;20.866;2022-11-15T10:45:24;4.80;;;4.60;;
20177;SDS011;10248;51.218;20.866;2022-11-15T10:48:18;4.82;;;4.63;;
20177;SDS011;10248;51.218;20.866;2022-11-15T10:50:49;4.50;;;4.30;;
20177;SDS011;10248;51.218;20.866;2022-11-15T10:53:19;4.70;;;4.50;;
20177;SDS011;10248;51.218;20.866;2022-11-15T10:55:50;4.80;;;4.60;;
20177;SDS011;10248;51.218;20.866;2022-11-15T10:58:20;4.80;;;4.60;;
20177;SDS011;10248;51.218;20.866;2022-11-15T11:00:52;4.70;;;4.50;;
20177;SDS011;10248;51.218;20.866;2022-11-15T11:03:26;4.75;;;4.55;;
20177;SDS011;10248;51.218;20.866;2022-11-15T11:06:06;4.60;;;4.40;;
20177;SDS011;10248;51.218;20.866;2022-11-15T11:08:36;4.90;;;4.70;;
20177;SDS011;10248;51.218;20.866;2022-11-15T11:11:04;4.78;;;4.57;;
20177;SDS011;10248;51.218;20.866;2022-11-15T11:13:33;4.88;;;4.68;;
20177;SDS011;10248;51.218;20.866;2022-11-15T11:16:19;4.80;;;4.60;;
20177;SDS011;10248;51.218;20.866;2022-11-15T11:18:56;4.72;;;4.53;;
20177;SDS011;10248;51.218;20.866;2022-11-15T11:21:32;4.28;;;4.15;;
20177;SDS011;10248;51.218;20.866;2022-11-15T11:24:10;4.50;;;4.30;;
20177;SDS011;10248;51.218;20.866;2022-11-15T11:26:49;4.68;;;4.47;;
20177;SDS011;10248;51.218;20.866;2022-11-15T11:29:27;4.90;;;4.70;;
20177;SDS011;10248;51.218;20.866;2022-11-15T11:32:02;4.80;;;4.60;;
20177;SDS011;10248;51.218;20.866;2022-11-15T11:34:36;4.90;;;4.70;;
20177;SDS011;10248;51.218;20.866;2022-11-15T11:37:12;5.00;;;4.80;;
20177;SDS011;10248;51.218;20.866;2022-11-15T11:39:47;4.93;;;4.72;;
20177;SDS011;10248;51.218;20.866;2022-11-15T11:42:24;5.03;;;4.82;;
20177;SDS011;10248;51.218;20.866;2022-11-15T11:44:55;4.80;;;4.60;;
20177;SDS011;10248;51.218;20.866;2022-11-15T11:47:39;4.90;;;4.70;;
20177;SDS011;10248;51.218;20.866;2022-11-15T11:50:10;4.90;;;4.70;;
20177;SDS011;10248;51.218;20.866;2022-11-15T11:52:41;4.50;;;4.30;;
20177;SDS011;10248;51.218;20.866;2022-11-15T11:55:13;4.70;;;4.50;;
20177;SDS011;10248;51.218;20.866;2022-11-15T11:57:48;4.50;;;4.30;;
20177;SDS011;10248;51.218;20.866;2022-11-15T12:02:50;4.20;;;4.10;;
20177;SDS011;10248;51.218;20.866;2022-11-15T12:05:26;3.90;;;3.80;;
20177;SDS011;10248;51.218;20.866;2022-11-15T12:07:59;4.40;;;4.20;;
20177;SDS011;10248;51.218;20.866;2022-11-15T12:10:32;4.20;;;4.10;;
20177;SDS011;10248;51.218;20.866;2022-11-15T12:13:02;4.80;;;4.60;;
20177;SDS011;10248;51.218;20.866;2022-11-15T12:15:32;4.78;;;4.57;;
20177;SDS011;10248;51.218;20.866;2022-11-15T12:18:07;4.60;;;4.40;;
20177;SDS011;10248;51.218;20.866;2022-11-15T12:20:39;4.00;;;3.90;;
20177;SDS011;10248;51.218;20.866;2022-11-15T12:23:11;4.50;;;4.30;;
20177;SDS011;10248;51.218;20.866;2022-11-15T12:25:44;4.70;;;4.50;;
20177;SDS011;10248;51.218;20.866;2022-11-15T12:28:15;4.97;;;4.78;;
20177;SDS011;10248;51.218;20.866;2022-11-15T12:30:49;4.80;;;4.60;;
20177;SDS011;10248;51.218;20.866;2022-11-15T12:33:31;4.80;;;4.60;;
20177;SDS011;10248;51.218;20.866;2022-11-15T12:36:04;4.90;;;4.70;;
20177;SDS011;10248;51.218;20.866;2022-11-15T12:38:53;4.90;;;4.70;;
20177;SDS011;10248;51.218;20.866;2022-11-15T12:41:24;4.40;;;4.20;;
20177;SDS011;10248;51.218;20.866;2022-11-15T12:43:54;4.82;;;4.63;;
20177;SDS011;10248;51.218;20.866;2022-11-15T12:46:58;4.53;;;4.32;;
20177;SDS011;10248;51.218;20.866;2022-11-15T12:49:46;4.85;;;4.65;;
20177;SDS011;10248;51.218;20.866;2022-11-15T12:52:14;4.80;;;4.60;;
20177;SDS011;10248;51.218;20.866;2022-11-15T12:55:02;4.78;;;4.57;;
20177;SDS011;10248;51.218;20.866;2022-11-15T12:57:56;4.65;;;4.45;;
20177;SDS011;10248;51.218;20.866;2022-11-15T13:01:08;4.70;;;4.50;;
20177;SDS011;10248;51.218;20.866;2022-11-15T13:06:40;3.90;;;3.80;;
20177;SDS011;10248;51.218;20.866;2022-11-15T13:15:35;4.20;;;4.10;;
20177;SDS011;10248;51.218;20.866;2022-11-15T13:21:20;3.88;;;3.78;;
20177;SDS011;10248;51.218;20.866;2022-11-15T13:24:12;3.97;;;3.88;;
20177;SDS011;10248;51.218;20.866;2022-11-15T13:26:40;3.83;;;3.72;;
20177;SDS011;10248;51.218;20.866;2022-11-15T13:29:14;4.10;;;4.00;;
20177;SDS011;10248;51.218;20.866;2022-11-15T13:31:43;3.53;;;3.42;;
20177;SDS011;10248;51.218;20.866;2022-11-15T13:34:22;3.80;;;3.70;;
20177;SDS011;10248;51.218;20.866;2022-11-15T13:37:27;3.70;;;3.60;;
20177;SDS011;10248;51.218;20.866;2022-11-15T13:40:00;3.50;;;3.40;;
20177;SDS011;10248;51.218;20.866;2022-11-15T13:42:43;3.60;;;3.50;;
20177;SDS011;10248;51.218;20.866;2022-11-15T13:45:12;3.42;;;3.33;;
20177;SDS011;10248;51.218;20.866;2022-11-15T13:47:42;3.40;;;3.30;;
20177;SDS011;10248;51.218;20.866;2022-11-15T13:50:11;3.60;;;3.50;;
20177;SDS011;10248;51.218;20.866;2022-11-15T13:52:40;3.70;;;3.60;;
20177;SDS011;10248;51.218;20.866;2022-11-15T13:55:12;3.30;;;3.20;;
20177;SDS011;10248;51.218;20.866;2022-11-15T13:57:45;3.50;;;3.40;;
20177;SDS011;10248;51.218;20.866;2022-11-15T14:00:35;3.40;;;3.30;;
20177;SDS011;10248;51.218;20.866;2022-11-15T14:03:07;3.40;;;3.30;;
20177;SDS011;10248;51.218;20.866;2022-11-15T14:05:41;3.13;;;3.03;;
20177;SDS011;10248;51.218;20.866;2022-11-15T14:08:20;3.30;;;3.20;;
20177;SDS011;10248;51.218;20.866;2022-11-15T14:13:35;3.40;;;3.30;;
20177;SDS011;10248;51.218;20.866;2022-11-15T14:16:13;3.28;;;3.17;;
20177;SDS011;10248;51.218;20.866;2022-11-15T14:18:43;3.20;;;3.10;;
20177;SDS011;10248;51.218;20.866;2022-11-15T14:21:12;3.10;;;3.00;;
20177;SDS011;10248;51.218;20.866;2022-11-15T14:23:41;3.20;;;3.10;;
20177;SDS011;10248;51.218;20.866;2022-11-15T14:26:25;3.20;;;3.10;;
20177;SDS011;10248;51.218;20.866;2022-11-15T14:28:54;3.20;;;3.10;;
20177;SDS011;10248;51.218;20.866;2022-11-15T14:31:22;3.10;;;3.00;;
20177;SDS011;10248;51.218;20.866;2022-11-15T14:33:50;3.38;;;3.28;;
20177;SDS011;10248;51.218;20.866;2022-11-15T14:36:19;3.10;;;3.00;;
20177;SDS011;10248;51.218;20.866;2022-11-15T14:38:47;3.20;;;3.10;;
20177;SDS011;10248;51.218;20.866;2022-11-15T14:41:29;3.00;;;2.90;;
20177;SDS011;10248;51.218;20.866;2022-11-15T14:43:59;3.30;;;3.20;;
20177;SDS011;10248;51.218;20.866;2022-11-15T14:46:27;3.33;;;3.22;;
20177;SDS011;10248;51.218;20.866;2022-11-15T14:48:55;3.28;;;3.17;;
20177;SDS011;10248;51.218;20.866;2022-11-15T14:51:23;3.30;;;3.20;;
20177;SDS011;10248;51.218;20.866;2022-11-15T14:53:52;2.90;;;2.80;;
20177;SDS011;10248;51.218;20.866;2022-11-15T14:56:22;3.10;;;3.00;;
20177;SDS011;10248;51.218;20.866;2022-11-15T14:58:50;3.17;;;3.08;;
20177;SDS011;10248;51.218;20.866;2022-11-15T15:01:26;3.30;;;3.20;;
20177;SDS011;10248;51.218;20.866;2022-11-15T15:03:54;3.22;;;3.13;;
20177;SDS011;10248;51.218;20.866;2022-11-15T15:06:25;3.05;;;2.95;;
20177;SDS011;10248;51.218;20.866;2022-11-15T15:08:53;3.30;;;3.20;;
20177;SDS011;10248;51.218;20.866;2022-11-15T15:11:23;2.95;;;2.85;;
20177;SDS011;10248;51.218;20.866;2022-11-15T15:13:54;3.35;;;3.25;;
20177;SDS011;10248;51.218;20.866;2022-11-15T15:16:27;3.22;;;3.13;;
20177;SDS011;10248;51.218;20.866;2022-11-15T15:18:55;3.20;;;3.10;;
20177;SDS011;10248;51.218;20.866;2022-11-15T15:21:24;3.10;;;3.00;;
20177;SDS011;10248;51.218;20.866;2022-11-15T15:24:00;3.10;;;3.00;;
20177;SDS011;10248;51.218;20.866;2022-11-15T15:26:30;3.00;;;2.90;;
20177;SDS011;10248;51.218;20.866;2022-11-15T15:29:00;3.00;;;2.90;;
20177;SDS011;10248;51.218;20.866;2022-11-15T15:31:28;3.10;;;3.00;;
20177;SDS011;10248;51.218;20.866;2022-11-15T15:33:57;3.10;;;3.00;;
20177;SDS011;10248;51.218;20.866;2022-11-15T15:36:25;3.10;;;3.00;;